sensor_id;sensor_type;location;lat;lon;timestamp;P1;durP1;ratioP1;P2;durP2;ratioP2
72856;SDS011;62742;52.136;4.500;2023-02-23T00:01:50;145.27;;;49.50;;
72856;SDS011;62742;52.136;4.500;2023-02-23T00:04:17;161.77;;;54.00;;
72856;SDS011;62742;52.136;4.500;2023-02-23T00:06:43;152.18;;;50.60;;
72856;SDS011;62742;52.136;4.500;2023-02-23T00:09:10;157.07;;;51.47;;
72856;SDS011;62742;52.136;4.500;2023-02-23T00:11:48;171.98;;;55.45;;
72856;SDS011;62742;52.136;4.500;2023-02-23T00:14:16;139.40;;;46.95;;
72856;SDS011;62742;52.136;4.500;2023-02-23T00:16:42;144.82;;;48.40;;
72856;SDS011;62742;52.136;4.500;2023-02-23T00:19:10;159.98;;;51.78;;
72856;SDS011;62742;52.136;4.500;2023-02-23T00:21:39;153.60;;;52.00;;
72856;SDS011;62742;52.136;4.500;2023-02-23T00:24:07;191.48;;;57.17;;
72856;SDS011;62742;52.136;4.500;2023-02-23T00:26:40;172.75;;;54.00;;
72856;SDS011;62742;52.136;4.500;2023-02-23T00:29:09;148.88;;;47.17;;
72856;SDS011;62742;52.136;4.500;2023-02-23T00:31:42;163.60;;;53.28;;
72856;SDS011;62742;52.136;4.500;2023-02-23T00:34:10;171.73;;;53.08;;
72856;SDS011;62742;52.136;4.500;2023-02-23T00:36:41;175.65;;;53.70;;
72856;SDS011;62742;52.136;4.500;2023-02-23T00:39:09;172.88;;;52.70;;
72856;SDS011;62742;52.136;4.500;2023-02-23T00:41:48;179.88;;;53.83;;
72856;SDS011;62742;52.136;4.500;2023-02-23T00:44:17;160.13;;;50.30;;
72856;SDS011;62742;52.136;4.500;2023-02-23T00:46:46;188.40;;;54.08;;
72856;SDS011;62742;52.136;4.500;2023-02-23T00:49:16;207.10;;;56.45;;
72856;SDS011;62742;52.136;4.500;2023-02-23T00:51:44;195.50;;;53.80;;
72856;SDS011;62742;52.136;4.500;2023-02-23T00:54:12;132.52;;;45.55;;
72856;SDS011;62742;52.136;4.500;2023-02-23T00:56:40;197.75;;;55.08;;
72856;SDS011;62742;52.136;4.500;2023-02-23T00:59:07;200.88;;;57.50;;
72856;SDS011;62742;52.136;4.500;2023-02-23T01:01:35;213.10;;;56.80;;
72856;SDS011;62742;52.136;4.500;2023-02-23T01:04:02;185.15;;;52.83;;
72856;SDS011;62742;52.136;4.500;2023-02-23T01:06:31;195.13;;;56.20;;
72856;SDS011;62742;52.136;4.500;2023-02-23T01:08:57;165.63;;;51.65;;
72856;SDS011;62742;52.136;4.500;2023-02-23T01:11:26;185.57;;;51.10;;
72856;SDS011;62742;52.136;4.500;2023-02-23T01:13:55;153.25;;;50.47;;
72856;SDS011;62742;52.136;4.500;2023-02-23T01:16:25;157.60;;;48.75;;
72856;SDS011;62742;52.136;4.500;2023-02-23T01:18:58;154.13;;;48.45;;
72856;SDS011;62742;52.136;4.500;2023-02-23T01:21:30;154.07;;;49.15;;
72856;SDS011;62742;52.136;4.500;2023-02-23T01:24:04;159.07;;;50.33;;
72856;SDS011;62742;52.136;4.500;2023-02-23T01:26:33;181.68;;;53.33;;
72856;SDS011;62742;52.136;4.500;2023-02-23T01:29:07;149.93;;;46.42;;
72856;SDS011;62742;52.136;4.500;2023-02-23T01:31:47;128.77;;;40.50;;
72856;SDS011;62742;52.136;4.500;2023-02-23T01:34:18;182.38;;;55.28;;
72856;SDS011;62742;52.136;4.500;2023-02-23T01:36:46;173.43;;;53.92;;
72856;SDS011;62742;52.136;4.500;2023-02-23T01:39:15;181.93;;;53.15;;
72856;SDS011;62742;52.136;4.500;2023-02-23T01:41:45;147.40;;;48.42;;
72856;SDS011;62742;52.136;4.500;2023-02-23T01:49:09;173.18;;;47.58;;
72856;SDS011;62742;52.136;4.500;2023-02-23T01:52:12;177.07;;;50.38;;
72856;SDS011;62742;52.136;4.500;2023-02-23T01:54:43;183.60;;;51.40;;
72856;SDS011;62742;52.136;4.500;2023-02-23T01:57:19;194.60;;;54.70;;
72856;SDS011;62742;52.136;4.500;2023-02-23T01:59:51;174.98;;;51.38;;
72856;SDS011;62742;52.136;4.500;2023-02-23T02:02:20;152.80;;;49.15;;
72856;SDS011;62742;52.136;4.500;2023-02-23T02:04:58;186.80;;;54.17;;
72856;SDS011;62742;52.136;4.500;2023-02-23T02:07:29;177.80;;;50.53;;
72856;SDS011;62742;52.136;4.500;2023-02-23T02:09:59;167.27;;;50.75;;
72856;SDS011;62742;52.136;4.500;2023-02-23T02:12:40;183.70;;;51.47;;
72856;SDS011;62742;52.136;4.500;2023-02-23T02:15:10;197.52;;;55.25;;
72856;SDS011;62742;52.136;4.500;2023-02-23T02:42:21;137.95;;;42.80;;
72856;SDS011;62742;52.136;4.500;2023-02-23T02:48:45;204.65;;;52.63;;
72856;SDS011;62742;52.136;4.500;2023-02-23T02:51:13;200.65;;;52.30;;
72856;SDS011;62742;52.136;4.500;2023-02-23T02:54:04;183.35;;;50.30;;
72856;SDS011;62742;52.136;4.500;2023-02-23T02:56:46;209.00;;;53.00;;
72856;SDS011;62742;52.136;4.500;2023-02-23T02:59:18;205.35;;;53.92;;
72856;SDS011;62742;52.136;4.500;2023-02-23T03:04:50;142.68;;;43.55;;
72856;SDS011;62742;52.136;4.500;2023-02-23T03:07:38;121.07;;;39.97;;
72856;SDS011;62742;52.136;4.500;2023-02-23T03:10:35;212.30;;;50.58;;
72856;SDS011;62742;52.136;4.500;2023-02-23T03:19:58;143.82;;;43.63;;
72856;SDS011;62742;52.136;4.500;2023-02-23T03:22:54;161.50;;;45.53;;
72856;SDS011;62742;52.136;4.500;2023-02-23T03:28:53;166.57;;;45.92;;
72856;SDS011;62742;52.136;4.500;2023-02-23T03:32:01;171.07;;;48.40;;
72856;SDS011;62742;52.136;4.500;2023-02-23T03:41:16;152.38;;;44.15;;
72856;SDS011;62742;52.136;4.500;2023-02-23T03:44:06;151.85;;;41.75;;
72856;SDS011;62742;52.136;4.500;2023-02-23T03:47:07;113.13;;;36.92;;
72856;SDS011;62742;52.136;4.500;2023-02-23T03:49:57;140.02;;;42.92;;
72856;SDS011;62742;52.136;4.500;2023-02-23T03:52:49;107.97;;;35.60;;
72856;SDS011;62742;52.136;4.500;2023-02-23T03:55:42;144.05;;;42.17;;
72856;SDS011;62742;52.136;4.500;2023-02-23T03:58:39;115.72;;;36.70;;
72856;SDS011;62742;52.136;4.500;2023-02-23T04:01:33;124.75;;;38.03;;
72856;SDS011;62742;52.136;4.500;2023-02-23T04:04:21;129.68;;;39.13;;
72856;SDS011;62742;52.136;4.500;2023-02-23T04:07:12;141.98;;;41.22;;
72856;SDS011;62742;52.136;4.500;2023-02-23T04:10:02;137.48;;;42.38;;
72856;SDS011;62742;52.136;4.500;2023-02-23T04:12:58;230.15;;;52.63;;
72856;SDS011;62742;52.136;4.500;2023-02-23T04:15:53;227.57;;;48.73;;
72856;SDS011;62742;52.136;4.500;2023-02-23T04:18:32;238.45;;;55.20;;
72856;SDS011;62742;52.136;4.500;2023-02-23T04:21:03;168.35;;;44.25;;
72856;SDS011;62742;52.136;4.500;2023-02-23T04:23:31;296.55;;;59.40;;
72856;SDS011;62742;52.136;4.500;2023-02-23T04:25:59;261.10;;;54.17;;
72856;SDS011;62742;52.136;4.500;2023-02-23T04:28:26;196.45;;;46.30;;
72856;SDS011;62742;52.136;4.500;2023-02-23T04:30:53;179.07;;;45.63;;
72856;SDS011;62742;52.136;4.500;2023-02-23T04:33:21;200.15;;;49.22;;
72856;SDS011;62742;52.136;4.500;2023-02-23T04:35:53;304.42;;;58.72;;
72856;SDS011;62742;52.136;4.500;2023-02-23T04:38:20;231.43;;;48.22;;
72856;SDS011;62742;52.136;4.500;2023-02-23T04:40:48;120.22;;;37.42;;
72856;SDS011;62742;52.136;4.500;2023-02-23T04:43:15;108.68;;;34.17;;
72856;SDS011;62742;52.136;4.500;2023-02-23T04:45:41;209.77;;;43.88;;
72856;SDS011;62742;52.136;4.500;2023-02-23T04:48:09;138.82;;;39.38;;
72856;SDS011;62742;52.136;4.500;2023-02-23T04:53:02;119.03;;;34.28;;
72856;SDS011;62742;52.136;4.500;2023-02-23T04:55:28;133.07;;;39.65;;
72856;SDS011;62742;52.136;4.500;2023-02-23T05:00:23;142.88;;;39.78;;
72856;SDS011;62742;52.136;4.500;2023-02-23T05:02:50;93.80;;;30.58;;
72856;SDS011;62742;52.136;4.500;2023-02-23T05:05:17;141.45;;;39.25;;
72856;SDS011;62742;52.136;4.500;2023-02-23T05:07:44;215.60;;;46.45;;
72856;SDS011;62742;52.136;4.500;2023-02-23T05:10:10;159.10;;;41.63;;
72856;SDS011;62742;52.136;4.500;2023-02-23T05:12:38;136.13;;;38.03;;
72856;SDS011;62742;52.136;4.500;2023-02-23T05:15:05;129.82;;;36.95;;
72856;SDS011;62742;52.136;4.500;2023-02-23T05:17:32;97.97;;;32.40;;
72856;SDS011;62742;52.136;4.500;2023-02-23T05:22:24;123.20;;;36.42;;
72856;SDS011;62742;52.136;4.500;2023-02-23T05:27:17;117.35;;;32.97;;
72856;SDS011;62742;52.136;4.500;2023-02-23T05:29:44;144.02;;;38.38;;
72856;SDS011;62742;52.136;4.500;2023-02-23T05:32:10;180.05;;;43.45;;
72856;SDS011;62742;52.136;4.500;2023-02-23T05:37:03;85.80;;;28.40;;
72856;SDS011;62742;52.136;4.500;2023-02-23T05:39:30;87.35;;;28.88;;
72856;SDS011;62742;52.136;4.500;2023-02-23T05:41:57;148.32;;;37.05;;
72856;SDS011;62742;52.136;4.500;2023-02-23T05:44:23;246.68;;;50.42;;
72856;SDS011;62742;52.136;4.500;2023-02-23T05:46:50;202.45;;;47.15;;
72856;SDS011;62742;52.136;4.500;2023-02-23T05:49:17;157.20;;;41.40;;
72856;SDS011;62742;52.136;4.500;2023-02-23T05:51:43;169.95;;;41.22;;
72856;SDS011;62742;52.136;4.500;2023-02-23T05:54:10;161.30;;;40.53;;
72856;SDS011;62742;52.136;4.500;2023-02-23T05:56:38;136.93;;;38.63;;
72856;SDS011;62742;52.136;4.500;2023-02-23T05:59:06;138.10;;;37.60;;
72856;SDS011;62742;52.136;4.500;2023-02-23T06:01:32;249.60;;;47.63;;
72856;SDS011;62742;52.136;4.500;2023-02-23T06:03:59;131.07;;;34.50;;
72856;SDS011;62742;52.136;4.500;2023-02-23T06:06:25;219.57;;;46.05;;
72856;SDS011;62742;52.136;4.500;2023-02-23T06:08:53;192.18;;;45.83;;
72856;SDS011;62742;52.136;4.500;2023-02-23T06:11:20;201.18;;;45.15;;
72856;SDS011;62742;52.136;4.500;2023-02-23T06:13:47;171.90;;;43.40;;
72856;SDS011;62742;52.136;4.500;2023-02-23T06:16:13;166.82;;;39.75;;
72856;SDS011;62742;52.136;4.500;2023-02-23T06:18:40;143.77;;;39.33;;
72856;SDS011;62742;52.136;4.500;2023-02-23T06:21:07;169.02;;;41.63;;
72856;SDS011;62742;52.136;4.500;2023-02-23T06:23:33;166.20;;;40.83;;
72856;SDS011;62742;52.136;4.500;2023-02-23T06:26:00;185.20;;;43.40;;
72856;SDS011;62742;52.136;4.500;2023-02-23T06:28:27;153.02;;;41.33;;
72856;SDS011;62742;52.136;4.500;2023-02-23T06:30:54;209.27;;;48.97;;
72856;SDS011;62742;52.136;4.500;2023-02-23T06:33:21;188.73;;;42.95;;
72856;SDS011;62742;52.136;4.500;2023-02-23T06:35:49;167.82;;;43.22;;
72856;SDS011;62742;52.136;4.500;2023-02-23T06:38:15;192.90;;;43.45;;
72856;SDS011;62742;52.136;4.500;2023-02-23T06:40:42;168.30;;;41.85;;
72856;SDS011;62742;52.136;4.500;2023-02-23T06:43:09;147.73;;;39.70;;
72856;SDS011;62742;52.136;4.500;2023-02-23T06:45:36;156.05;;;40.50;;
72856;SDS011;62742;52.136;4.500;2023-02-23T06:48:03;163.65;;;42.05;;
72856;SDS011;62742;52.136;4.500;2023-02-23T06:50:30;153.45;;;40.78;;
72856;SDS011;62742;52.136;4.500;2023-02-23T06:52:56;163.13;;;42.05;;
72856;SDS011;62742;52.136;4.500;2023-02-23T06:55:23;138.38;;;37.20;;
72856;SDS011;62742;52.136;4.500;2023-02-23T06:57:50;152.10;;;38.78;;
72856;SDS011;62742;52.136;4.500;2023-02-23T07:00:19;130.55;;;35.55;;
72856;SDS011;62742;52.136;4.500;2023-02-23T07:02:46;121.15;;;36.17;;
72856;SDS011;62742;52.136;4.500;2023-02-23T07:05:13;146.20;;;36.83;;
72856;SDS011;62742;52.136;4.500;2023-02-23T07:07:41;126.18;;;35.85;;
72856;SDS011;62742;52.136;4.500;2023-02-23T07:10:08;103.18;;;30.58;;
72856;SDS011;62742;52.136;4.500;2023-02-23T07:12:35;99.30;;;31.52;;
72856;SDS011;62742;52.136;4.500;2023-02-23T07:15:02;112.05;;;34.22;;
72856;SDS011;62742;52.136;4.500;2023-02-23T07:17:29;119.50;;;31.73;;
72856;SDS011;62742;52.136;4.500;2023-02-23T07:19:56;127.63;;;35.47;;
72856;SDS011;62742;52.136;4.500;2023-02-23T07:22:23;129.13;;;34.95;;
72856;SDS011;62742;52.136;4.500;2023-02-23T07:24:52;94.00;;;29.35;;
72856;SDS011;62742;52.136;4.500;2023-02-23T07:29:44;114.60;;;30.67;;
72856;SDS011;62742;52.136;4.500;2023-02-23T07:32:11;81.68;;;27.50;;
72856;SDS011;62742;52.136;4.500;2023-02-23T07:34:37;82.43;;;25.85;;
72856;SDS011;62742;52.136;4.500;2023-02-23T07:37:05;100.75;;;30.05;;
72856;SDS011;62742;52.136;4.500;2023-02-23T07:41:57;79.70;;;25.55;;
72856;SDS011;62742;52.136;4.500;2023-02-23T07:44:24;79.35;;;26.27;;
72856;SDS011;62742;52.136;4.500;2023-02-23T07:46:50;76.38;;;23.65;;
72856;SDS011;62742;52.136;4.500;2023-02-23T07:49:17;68.40;;;24.25;;
72856;SDS011;62742;52.136;4.500;2023-02-23T07:51:44;67.13;;;22.00;;
72856;SDS011;62742;52.136;4.500;2023-02-23T07:54:11;57.00;;;20.20;;
72856;SDS011;62742;52.136;4.500;2023-02-23T07:56:38;80.80;;;25.17;;
72856;SDS011;62742;52.136;4.500;2023-02-23T07:59:05;67.57;;;22.05;;
72856;SDS011;62742;52.136;4.500;2023-02-23T08:01:31;62.83;;;20.48;;
72856;SDS011;62742;52.136;4.500;2023-02-23T08:03:58;71.18;;;22.02;;
72856;SDS011;62742;52.136;4.500;2023-02-23T08:06:25;62.30;;;21.48;;
72856;SDS011;62742;52.136;4.500;2023-02-23T08:08:52;63.20;;;21.98;;
72856;SDS011;62742;52.136;4.500;2023-02-23T08:13:45;43.30;;;15.45;;
72856;SDS011;62742;52.136;4.500;2023-02-23T08:18:37;43.00;;;15.07;;
72856;SDS011;62742;52.136;4.500;2023-02-23T08:21:04;46.78;;;16.90;;
72856;SDS011;62742;52.136;4.500;2023-02-23T08:23:31;42.00;;;15.80;;
72856;SDS011;62742;52.136;4.500;2023-02-23T08:25:59;44.25;;;15.35;;
72856;SDS011;62742;52.136;4.500;2023-02-23T08:28:27;42.10;;;17.08;;
72856;SDS011;62742;52.136;4.500;2023-02-23T08:30:55;44.35;;;17.20;;
72856;SDS011;62742;52.136;4.500;2023-02-23T08:33:22;34.47;;;14.07;;
72856;SDS011;62742;52.136;4.500;2023-02-23T08:35:48;39.42;;;14.57;;
72856;SDS011;62742;52.136;4.500;2023-02-23T08:38:15;31.63;;;11.80;;
72856;SDS011;62742;52.136;4.500;2023-02-23T08:40:43;29.33;;;12.23;;
72856;SDS011;62742;52.136;4.500;2023-02-23T08:43:10;32.15;;;12.88;;
72856;SDS011;62742;52.136;4.500;2023-02-23T08:45:36;32.30;;;12.40;;
72856;SDS011;62742;52.136;4.500;2023-02-23T08:48:05;27.70;;;12.95;;
72856;SDS011;62742;52.136;4.500;2023-02-23T08:50:33;33.45;;;13.25;;
72856;SDS011;62742;52.136;4.500;2023-02-23T08:55:26;30.70;;;12.30;;
72856;SDS011;62742;52.136;4.500;2023-02-23T09:00:19;29.60;;;12.25;;
72856;SDS011;62742;52.136;4.500;2023-02-23T09:02:46;30.85;;;13.40;;
72856;SDS011;62742;52.136;4.500;2023-02-23T09:05:13;36.00;;;13.95;;
72856;SDS011;62742;52.136;4.500;2023-02-23T09:07:41;31.73;;;13.85;;
72856;SDS011;62742;52.136;4.500;2023-02-23T09:10:13;32.83;;;12.70;;
72856;SDS011;62742;52.136;4.500;2023-02-23T09:12:44;23.33;;;10.98;;
72856;SDS011;62742;52.136;4.500;2023-02-23T09:15:11;29.85;;;12.60;;
72856;SDS011;62742;52.136;4.500;2023-02-23T09:20:04;28.02;;;12.02;;
72856;SDS011;62742;52.136;4.500;2023-02-23T09:22:31;25.25;;;12.27;;
72856;SDS011;62742;52.136;4.500;2023-02-23T09:24:59;27.58;;;11.48;;
72856;SDS011;62742;52.136;4.500;2023-02-23T09:27:26;26.17;;;11.82;;
72856;SDS011;62742;52.136;4.500;2023-02-23T09:29:52;27.85;;;12.25;;
72856;SDS011;62742;52.136;4.500;2023-02-23T09:32:19;27.30;;;11.77;;
72856;SDS011;62742;52.136;4.500;2023-02-23T09:34:45;28.90;;;12.65;;
72856;SDS011;62742;52.136;4.500;2023-02-23T09:37:13;29.92;;;12.10;;
72856;SDS011;62742;52.136;4.500;2023-02-23T09:39:40;27.00;;;12.07;;
72856;SDS011;62742;52.136;4.500;2023-02-23T09:42:15;28.70;;;11.82;;
72856;SDS011;62742;52.136;4.500;2023-02-23T09:45:28;27.55;;;11.93;;
72856;SDS011;62742;52.136;4.500;2023-02-23T09:48:11;27.08;;;11.10;;
72856;SDS011;62742;52.136;4.500;2023-02-23T09:50:50;34.58;;;13.40;;
72856;SDS011;62742;52.136;4.500;2023-02-23T09:59:12;30.00;;;11.68;;
72856;SDS011;62742;52.136;4.500;2023-02-23T10:04:27;24.95;;;10.93;;
72856;SDS011;62742;52.136;4.500;2023-02-23T10:09:50;26.13;;;11.18;;
72856;SDS011;62742;52.136;4.500;2023-02-23T10:15:36;26.60;;;11.98;;
72856;SDS011;62742;52.136;4.500;2023-02-23T10:21:17;29.65;;;11.95;;
72856;SDS011;62742;52.136;4.500;2023-02-23T10:24:11;31.20;;;12.70;;
72856;SDS011;62742;52.136;4.500;2023-02-23T10:35:38;32.85;;;13.20;;
72856;SDS011;62742;52.136;4.500;2023-02-23T10:38:07;34.75;;;13.00;;
72856;SDS011;62742;52.136;4.500;2023-02-23T10:40:44;32.00;;;13.60;;
72856;SDS011;62742;52.136;4.500;2023-02-23T10:43:18;37.75;;;15.25;;
72856;SDS011;62742;52.136;4.500;2023-02-23T10:45:46;34.95;;;13.95;;
72856;SDS011;62742;52.136;4.500;2023-02-23T10:48:22;29.75;;;13.38;;
72856;SDS011;62742;52.136;4.500;2023-02-23T10:50:54;31.95;;;13.30;;
72856;SDS011;62742;52.136;4.500;2023-02-23T10:53:31;35.83;;;13.25;;
72856;SDS011;62742;52.136;4.500;2023-02-23T10:58:39;41.17;;;13.85;;
72856;SDS011;62742;52.136;4.500;2023-02-23T11:01:36;37.05;;;13.75;;
72856;SDS011;62742;52.136;4.500;2023-02-23T11:04:20;42.22;;;15.13;;
72856;SDS011;62742;52.136;4.500;2023-02-23T11:07:05;36.08;;;15.40;;
72856;SDS011;62742;52.136;4.500;2023-02-23T11:09:41;40.25;;;16.30;;
72856;SDS011;62742;52.136;4.500;2023-02-23T11:12:15;46.45;;;16.65;;
72856;SDS011;62742;52.136;4.500;2023-02-23T11:14:55;44.85;;;16.67;;
72856;SDS011;62742;52.136;4.500;2023-02-23T11:22:48;46.50;;;19.23;;
72856;SDS011;62742;52.136;4.500;2023-02-23T11:25:24;44.08;;;18.17;;
72856;SDS011;62742;52.136;4.500;2023-02-23T11:27:55;47.80;;;18.60;;
72856;SDS011;62742;52.136;4.500;2023-02-23T11:30:24;40.00;;;16.25;;
72856;SDS011;62742;52.136;4.500;2023-02-23T11:33:01;48.15;;;19.00;;
72856;SDS011;62742;52.136;4.500;2023-02-23T11:35:37;45.97;;;18.15;;
72856;SDS011;62742;52.136;4.500;2023-02-23T11:41:01;42.65;;;18.48;;
72856;SDS011;62742;52.136;4.500;2023-02-23T11:43:31;44.72;;;17.75;;
72856;SDS011;62742;52.136;4.500;2023-02-23T11:51:33;41.97;;;17.25;;
72856;SDS011;62742;52.136;4.500;2023-02-23T11:54:06;45.97;;;16.98;;
72856;SDS011;62742;52.136;4.500;2023-02-23T11:56:47;45.58;;;17.98;;
72856;SDS011;62742;52.136;4.500;2023-02-23T11:59:17;49.17;;;18.58;;
72856;SDS011;62742;52.136;4.500;2023-02-23T12:02:24;46.03;;;18.13;;
72856;SDS011;62742;52.136;4.500;2023-02-23T12:07:48;43.97;;;17.83;;
72856;SDS011;62742;52.136;4.500;2023-02-23T12:10:38;44.25;;;18.05;;
72856;SDS011;62742;52.136;4.500;2023-02-23T12:22:06;40.70;;;17.35;;
72856;SDS011;62742;52.136;4.500;2023-02-23T12:27:23;45.88;;;18.52;;
72856;SDS011;62742;52.136;4.500;2023-02-23T12:30:23;37.10;;;17.70;;
72856;SDS011;62742;52.136;4.500;2023-02-23T12:33:03;36.60;;;16.70;;
72856;SDS011;62742;52.136;4.500;2023-02-23T12:38:22;35.78;;;16.02;;
72856;SDS011;62742;52.136;4.500;2023-02-23T12:41:11;32.42;;;15.43;;
72856;SDS011;62742;52.136;4.500;2023-02-23T12:44:45;38.15;;;15.77;;
72856;SDS011;62742;52.136;4.500;2023-02-23T12:46:47;31.02;;;14.25;;
72856;SDS011;62742;52.136;4.500;2023-02-23T12:49:36;36.80;;;16.52;;
72856;SDS011;62742;52.136;4.500;2023-02-23T12:52:12;39.40;;;16.65;;
72856;SDS011;62742;52.136;4.500;2023-02-23T12:54:47;42.00;;;18.00;;
72856;SDS011;62742;52.136;4.500;2023-02-23T12:57:31;39.25;;;17.92;;
72856;SDS011;62742;52.136;4.500;2023-02-23T13:00:29;40.92;;;18.25;;
72856;SDS011;62742;52.136;4.500;2023-02-23T13:03:20;36.55;;;16.33;;
72856;SDS011;62742;52.136;4.500;2023-02-23T13:12:44;37.15;;;15.70;;
72856;SDS011;62742;52.136;4.500;2023-02-23T13:18:48;29.40;;;13.75;;
72856;SDS011;62742;52.136;4.500;2023-02-23T13:21:36;29.67;;;11.77;;
72856;SDS011;62742;52.136;4.500;2023-02-23T13:24:17;27.80;;;11.85;;
72856;SDS011;62742;52.136;4.500;2023-02-23T13:27:09;26.65;;;11.68;;
72856;SDS011;62742;52.136;4.500;2023-02-23T13:29:47;26.08;;;11.15;;
72856;SDS011;62742;52.136;4.500;2023-02-23T13:32:23;28.88;;;12.13;;
72856;SDS011;62742;52.136;4.500;2023-02-23T13:35:01;27.73;;;11.45;;
72856;SDS011;62742;52.136;4.500;2023-02-23T13:37:39;32.05;;;12.55;;
72856;SDS011;62742;52.136;4.500;2023-02-23T13:51:49;26.98;;;11.25;;
72856;SDS011;62742;52.136;4.500;2023-02-23T13:54:24;26.15;;;10.95;;
72856;SDS011;62742;52.136;4.500;2023-02-23T13:56:58;28.67;;;10.82;;
72856;SDS011;62742;52.136;4.500;2023-02-23T13:59:35;27.45;;;11.07;;
72856;SDS011;62742;52.136;4.500;2023-02-23T14:05:02;28.67;;;11.70;;
72856;SDS011;62742;52.136;4.500;2023-02-23T14:07:40;28.23;;;11.05;;
72856;SDS011;62742;52.136;4.500;2023-02-23T14:28:45;13.13;;;5.95;;
72856;SDS011;62742;52.136;4.500;2023-02-23T14:31:33;13.15;;;4.95;;
72856;SDS011;62742;52.136;4.500;2023-02-23T14:34:05;13.88;;;4.22;;
72856;SDS011;62742;52.136;4.500;2023-02-23T14:36:35;12.15;;;4.53;;
72856;SDS011;62742;52.136;4.500;2023-02-23T14:39:09;12.90;;;4.32;;
72856;SDS011;62742;52.136;4.500;2023-02-23T14:44:26;12.45;;;3.90;;
72856;SDS011;62742;52.136;4.500;2023-02-23T14:47:05;13.40;;;4.65;;
72856;SDS011;62742;52.136;4.500;2023-02-23T14:49:41;16.50;;;4.95;;
72856;SDS011;62742;52.136;4.500;2023-02-23T14:52:27;15.75;;;5.60;;
72856;SDS011;62742;52.136;4.500;2023-02-23T14:57:51;17.20;;;7.43;;
72856;SDS011;62742;52.136;4.500;2023-02-23T15:00:20;18.95;;;6.65;;
72856;SDS011;62742;52.136;4.500;2023-02-23T15:03:02;17.25;;;6.38;;
72856;SDS011;62742;52.136;4.500;2023-02-23T15:05:49;16.40;;;6.32;;
72856;SDS011;62742;52.136;4.500;2023-02-23T15:08:25;16.65;;;5.15;;
72856;SDS011;62742;52.136;4.500;2023-02-23T15:10:59;12.05;;;4.20;;
72856;SDS011;62742;52.136;4.500;2023-02-23T15:13:36;15.32;;;4.40;;
72856;SDS011;62742;52.136;4.500;2023-02-23T15:16:13;15.50;;;4.25;;
72856;SDS011;62742;52.136;4.500;2023-02-23T15:18:48;14.27;;;4.32;;
72856;SDS011;62742;52.136;4.500;2023-02-23T15:21:18;14.98;;;4.07;;
72856;SDS011;62742;52.136;4.500;2023-02-23T15:23:48;12.98;;;3.45;;
72856;SDS011;62742;52.136;4.500;2023-02-23T15:26:25;13.85;;;3.47;;
72856;SDS011;62742;52.136;4.500;2023-02-23T15:31:36;13.07;;;2.90;;
72856;SDS011;62742;52.136;4.500;2023-02-23T15:34:09;16.75;;;3.60;;
72856;SDS011;62742;52.136;4.500;2023-02-23T15:36:36;12.15;;;3.17;;
72856;SDS011;62742;52.136;4.500;2023-02-23T15:39:06;16.30;;;3.75;;
72856;SDS011;62742;52.136;4.500;2023-02-23T15:41:40;16.83;;;3.88;;
72856;SDS011;62742;52.136;4.500;2023-02-23T15:46:53;17.10;;;4.05;;
72856;SDS011;62742;52.136;4.500;2023-02-23T15:49:28;19.52;;;3.83;;
72856;SDS011;62742;52.136;4.500;2023-02-23T15:52:07;20.35;;;4.20;;
72856;SDS011;62742;52.136;4.500;2023-02-23T15:57:40;20.00;;;4.00;;
72856;SDS011;62742;52.136;4.500;2023-02-23T16:00:31;21.13;;;4.50;;
72856;SDS011;62742;52.136;4.500;2023-02-23T16:03:05;18.52;;;4.35;;
72856;SDS011;62742;52.136;4.500;2023-02-23T16:05:34;19.60;;;4.70;;
72856;SDS011;62742;52.136;4.500;2023-02-23T16:08:23;24.40;;;4.63;;
72856;SDS011;62742;52.136;4.500;2023-02-23T16:10:53;26.45;;;4.50;;
72856;SDS011;62742;52.136;4.500;2023-02-23T16:13:32;26.25;;;4.85;;
72856;SDS011;62742;52.136;4.500;2023-02-23T16:15:59;18.45;;;4.05;;
72856;SDS011;62742;52.136;4.500;2023-02-23T16:18:30;25.70;;;4.30;;
72856;SDS011;62742;52.136;4.500;2023-02-23T16:21:10;19.83;;;3.75;;
72856;SDS011;62742;52.136;4.500;2023-02-23T16:23:46;22.42;;;3.63;;
72856;SDS011;62742;52.136;4.500;2023-02-23T16:26:22;23.85;;;4.40;;
72856;SDS011;62742;52.136;4.500;2023-02-23T16:28:59;21.25;;;4.45;;
72856;SDS011;62742;52.136;4.500;2023-02-23T16:31:46;30.38;;;4.72;;
72856;SDS011;62742;52.136;4.500;2023-02-23T16:34:24;27.00;;;4.50;;
72856;SDS011;62742;52.136;4.500;2023-02-23T16:37:03;27.80;;;4.80;;
72856;SDS011;62742;52.136;4.500;2023-02-23T16:39:42;31.98;;;4.90;;
72856;SDS011;62742;52.136;4.500;2023-02-23T16:45:00;31.73;;;5.35;;
72856;SDS011;62742;52.136;4.500;2023-02-23T16:52:45;26.63;;;5.20;;
72856;SDS011;62742;52.136;4.500;2023-02-23T16:55:17;34.33;;;5.55;;
72856;SDS011;62742;52.136;4.500;2023-02-23T16:58:01;25.92;;;4.93;;
72856;SDS011;62742;52.136;4.500;2023-02-23T17:00:32;39.17;;;5.75;;
72856;SDS011;62742;52.136;4.500;2023-02-23T17:02:59;31.45;;;4.78;;
72856;SDS011;62742;52.136;4.500;2023-02-23T17:05:27;26.75;;;5.32;;
72856;SDS011;62742;52.136;4.500;2023-02-23T17:07:54;31.77;;;5.22;;
72856;SDS011;62742;52.136;4.500;2023-02-23T17:10:24;30.02;;;5.35;;
72856;SDS011;62742;52.136;4.500;2023-02-23T17:13:00;31.92;;;5.40;;
72856;SDS011;62742;52.136;4.500;2023-02-23T17:15:41;29.85;;;5.50;;
72856;SDS011;62742;52.136;4.500;2023-02-23T17:18:15;29.75;;;5.22;;
72856;SDS011;62742;52.136;4.500;2023-02-23T17:20:48;25.25;;;4.93;;
72856;SDS011;62742;52.136;4.500;2023-02-23T17:23:19;20.38;;;4.45;;
72856;SDS011;62742;52.136;4.500;2023-02-23T17:25:48;22.35;;;4.78;;
72856;SDS011;62742;52.136;4.500;2023-02-23T17:28:14;27.30;;;4.38;;
72856;SDS011;62742;52.136;4.500;2023-02-23T17:30:41;30.50;;;5.05;;
72856;SDS011;62742;52.136;4.500;2023-02-23T17:33:09;25.55;;;4.10;;
72856;SDS011;62742;52.136;4.500;2023-02-23T17:35:37;21.02;;;4.22;;
72856;SDS011;62742;52.136;4.500;2023-02-23T17:40:31;23.23;;;3.78;;
72856;SDS011;62742;52.136;4.500;2023-02-23T17:43:01;27.35;;;4.00;;
72856;SDS011;62742;52.136;4.500;2023-02-23T17:45:32;19.45;;;3.40;;
72856;SDS011;62742;52.136;4.500;2023-02-23T17:47:58;24.60;;;3.65;;
72856;SDS011;62742;52.136;4.500;2023-02-23T17:52:52;20.23;;;3.15;;
72856;SDS011;62742;52.136;4.500;2023-02-23T17:55:20;24.02;;;4.00;;
72856;SDS011;62742;52.136;4.500;2023-02-23T17:57:49;19.80;;;3.45;;
72856;SDS011;62742;52.136;4.500;2023-02-23T18:02:44;20.08;;;3.10;;
72856;SDS011;62742;52.136;4.500;2023-02-23T18:05:11;23.10;;;3.50;;
72856;SDS011;62742;52.136;4.500;2023-02-23T18:07:39;23.48;;;4.03;;
72856;SDS011;62742;52.136;4.500;2023-02-23T18:10:06;21.38;;;3.70;;
72856;SDS011;62742;52.136;4.500;2023-02-23T18:12:34;26.42;;;3.58;;
72856;SDS011;62742;52.136;4.500;2023-02-23T18:15:00;15.68;;;2.42;;
72856;SDS011;62742;52.136;4.500;2023-02-23T18:17:27;17.25;;;2.97;;
72856;SDS011;62742;52.136;4.500;2023-02-23T18:19:53;14.20;;;2.40;;
72856;SDS011;62742;52.136;4.500;2023-02-23T18:22:20;14.52;;;2.30;;
72856;SDS011;62742;52.136;4.500;2023-02-23T18:24:46;17.75;;;2.80;;
72856;SDS011;62742;52.136;4.500;2023-02-23T18:29:39;18.75;;;2.80;;